Flight Track Log - Related Links

Times and Time Zones

All times are in EST time to prevent confusion due to time zone crossing. See the FIN666 flight status page for this flight to view local times or setup timezone preferences in your user account.

Time Position Orientation Groundspeed Altitude Reporting Facility
EST Latitude Longitude Course Direction KTS MPH feet Rate Location/Type
Fri 07:29:00 AM 55.8420 13.1192 49° Northeast  Level Estimated
Fri 07:30:00 AM 55.9164 13.2747 50° Northeast  Level Estimated
Fri 07:31:00 AM 55.9987 13.4483 50° Northeast  Level Estimated
Fri 07:32:00 AM 56.0808 13.6226 50° Northeast  Level Estimated
Fri 07:33:00 AM 56.1627 13.7977 50° Northeast  Level Estimated
Fri 07:34:00 AM 56.2443 13.9735 50° Northeast  Level Estimated
Fri 07:35:00 AM 56.3256 14.1500 50° Northeast  Level Estimated
Fri 07:36:00 AM 56.4067 14.3273 50° Northeast  Level Estimated
Fri 07:37:00 AM 56.4876 14.5054 51° Northeast  Level Estimated
Fri 07:38:00 AM 56.5682 14.6842 51° Northeast  Level Estimated
Fri 07:39:00 AM 56.6485 14.8638 51° Northeast  Level Estimated
Fri 07:40:00 AM 56.7286 15.0441 51° Northeast  Level Estimated
Fri 07:41:00 AM 56.8084 15.2252 51° Northeast  Level Estimated
Fri 07:42:00 AM 56.8880 15.4071 51° Northeast  Level Estimated
Fri 07:43:00 AM 56.9673 15.5898 51° Northeast  Level Estimated
Fri 07:44:00 AM 57.0463 15.7732 52° Northeast  Level Estimated
Fri 07:45:00 AM 57.1250 15.9574 52° Northeast  Level Estimated
Fri 07:46:00 AM 57.2035 16.1425 52° Northeast  Level Estimated
Fri 07:47:00 AM 57.2817 16.3282 52° Northeast  Level Estimated
Fri 07:48:00 AM 57.3596 16.5148 52° Northeast  Level Estimated
Fri 07:49:00 AM 57.4373 16.7022 52° Northeast  Level Estimated
Fri 07:50:00 AM 57.5079 16.8740 53° Northeast  Level Estimated
Fri 07:51:00 AM 57.5784 17.0464 53° Northeast  Level Estimated
Fri 07:52:00 AM 57.6486 17.2195 53° Northeast  Level Estimated
Fri 07:53:00 AM 57.7185 17.3933 53° Northeast  Level Estimated
Fri 07:54:00 AM 57.7882 17.5677 53° Northeast  Level Estimated
Fri 07:55:00 AM 57.8577 17.7429 53° Northeast  Level Estimated
Fri 07:56:00 AM 57.9269 17.9187 53° Northeast  Level Estimated
Fri 07:57:00 AM 57.9959 18.0951 54° Northeast  Level Estimated
Fri 07:58:00 AM 58.0646 18.2723 54° Northeast  Level Estimated
Fri 07:59:00 AM 58.1331 18.4501 54° Northeast  Level Estimated
Fri 08:00:00 AM 58.2014 18.6287 54° Northeast  Level Estimated
Fri 08:01:00 AM 58.2694 18.8079 54° Northeast  Level Estimated
Fri 08:02:00 AM 58.3371 18.9878 54° Northeast  Level Estimated
Fri 08:03:00 AM 58.4046 19.1684 54° Northeast  Level Estimated
Fri 08:04:00 AM 58.4718 19.3496 55° Northeast  Level Estimated
Fri 08:05:00 AM 58.5388 19.5316 55° Northeast  Level Estimated
Fri 08:06:00 AM 58.6055 19.7143 55° Northeast  Level Estimated
Fri 08:07:00 AM 58.6720 19.8976 55° Northeast  Level Estimated
Fri 08:08:00 AM 58.7382 20.0817 55° Northeast  Level Estimated
Fri 08:09:00 AM 58.8041 20.2665 55° Northeast  Level Estimated
Fri 08:10:00 AM 58.8698 20.4519 56° Northeast  Level Estimated
Fri 08:11:00 AM 58.9352 20.6381 56° Northeast  Level Estimated
Fri 08:12:00 AM 59.0003 20.8250 56° Northeast  Level Estimated
Fri 08:13:00 AM 59.0652 21.0125 56° Northeast  Level Estimated
Fri 08:14:00 AM 59.1298 21.2008 56° Northeast  Level Estimated
Fri 08:15:00 AM 59.1941 21.3898 56° Northeast  Level Estimated
Fri 08:16:00 AM 59.2581 21.5795 57° Northeast  Level Estimated
Fri 08:17:00 AM 59.3219 21.7700 57° Northeast  Level Estimated
Fri 08:18:00 AM 59.3854 21.9611 57° Northeast  Level Estimated
Fri 08:19:00 AM 59.4486 22.1530 57° Northeast  Level Estimated
Fri 08:20:00 AM 59.5115 22.3455 57° Northeast  Level Estimated
Fri 08:21:00 AM 59.5742 22.5388 57° Northeast  Level Estimated
Fri 08:22:00 AM 59.6365 22.7328 57° Northeast  Level Estimated
Fri 08:23:00 AM 59.6986 22.9275 58° Northeast  Level Estimated
Fri 08:24:00 AM 59.7604 23.1230 58° Northeast  Level Estimated
Fri 08:25:00 AM 59.8219 23.3192 58° Northeast  Level Estimated
Fri 08:26:00 AM 59.8831 23.5161 58° Northeast  Level Estimated
Fri 08:27:00 AM 59.9440 23.7137 58° Northeast  Level Estimated
Fri 08:28:00 AM 60.0046 23.9120 59° Northeast  Level Estimated
Fri 08:29:00 AM 60.0649 24.1111 59° Northeast  Level Estimated
Fri 08:30:00 AM 60.1249 24.3109 59° Northeast  Level Estimated
Fri 08:31:00 AM 60.1846 24.5114 59° Northeast  Level Estimated
Fri 08:32:00 AM 60.2440 24.7127 59° Northeast  Level Estimated
Fri 08:33:00 AM 60.3031 24.9147 59° Northeast  Level Estimated
Fri 08:34:00 AM 60.3172 24.9633 60° Northeast  Level Estimated
Fri 08:35:00 AM 60.3172 24.9633 37° Northeast  Level Estimated
Fri 08:36:00 AM 60.3172 24.9633 37° Northeast  Level Estimated
Fri 08:37:00 AM 60.3172 24.9633 37° Northeast  Level Estimated
Fri 08:38:00 AM 60.3172 24.9633 37° Northeast  Level Estimated
Fri 08:39:00 AM 60.3172 24.9633 37° Northeast  Level Estimated
Fri 08:40:00 AM 60.3172 24.9633 37° Northeast  Level Estimated
Fri 08:41:00 AM 60.3172 24.9633 37° Northeast  Level Estimated
Fri 08:42:00 AM 60.3172 24.9633 37° Northeast  Level Estimated
Fri 08:43:00 AM 60.3172 24.9633 37° Northeast  Level Estimated
Fri 08:44:00 AM 60.3172 24.9633 37° Northeast  Level Estimated
Fri 08:45:00 AM 60.3172 24.9633 37° Northeast  Level Estimated

Login

Don't have an account? Register now (free) for customized features, flight alerts, and more!